Time;durP1;ratioP1;P1;durP2;ratioP2;P2;SDS_P1;SDS_P2;PMS_P1;PMS_P2;Temp;Humidity;BMP_temperature;BMP_pressure;BME280_temperature;BME280_humidity;BME280_pressure;Samples;Min_cycle;Max_cycle;Signal;HPM_P1;HPM_P2
2024/03/17 00:00:42;;;;;;;1.67;1.13;;;19.00;59.30;;;;;;5066068;28;20039;-60
2024/03/17 00:03:08;;;;;;;1.23;0.80;;;19.00;59.40;;;;;;5068526;28;20111;-61
2024/03/17 00:05:35;;;;;;;1.42;1.15;;;19.00;59.40;;;;;;5063703;28;20390;-61
2024/03/17 00:08:00;;;;;;;1.85;1.25;;;19.00;59.40;;;;;;5065136;28;20028;-61
2024/03/17 00:10:26;;;;;;;1.70;0.82;;;19.00;59.40;;;;;;5064915;28;20028;-59
2024/03/17 00:12:51;;;;;;;1.70;0.90;;;19.00;59.40;;;;;;5059411;28;20154;-60
2024/03/17 00:15:17;;;;;;;0.80;0.70;;;19.00;59.30;;;;;;5055307;28;20479;-61
2024/03/17 00:17:42;;;;;;;0.95;0.70;;;19.00;59.40;;;;;;5063090;28;20040;-60
2024/03/17 00:20:14;;;;;;;2.63;1.15;;;19.00;59.30;;;;;;5067042;28;20051;-61
2024/03/17 00:22:40;;;;;;;1.90;0.80;;;19.00;59.30;;;;;;5063982;28;20096;-60
2024/03/17 00:25:07;;;;;;;1.55;0.88;;;19.00;59.20;;;;;;5059607;28;20032;-59
2024/03/17 00:27:34;;;;;;;1.60;1.20;;;19.00;59.40;;;;;;5060824;28;20116;-61
2024/03/17 00:30:00;;;;;;;1.25;0.77;;;19.00;59.30;;;;;;5069284;28;20466;-61
2024/03/17 00:32:25;;;;;;;1.42;0.90;;;19.00;59.30;;;;;;5065865;28;20124;-61
2024/03/17 00:34:50;;;;;;;1.15;0.80;;;19.00;59.40;;;;;;5060426;28;20035;-59
2024/03/17 00:37:16;;;;;;;1.55;0.80;;;19.00;59.30;;;;;;5069718;28;20032;-60
2024/03/17 00:39:41;;;;;;;1.80;1.05;;;19.00;59.30;;;;;;5060602;28;20116;-59
2024/03/17 00:42:07;;;;;;;0.80;0.70;;;19.00;59.30;;;;;;5068729;28;20020;-60
2024/03/17 00:44:32;;;;;;;1.17;1.00;;;19.00;59.30;;;;;;5069930;28;20033;-61
2024/03/17 00:46:58;;;;;;;1.65;0.88;;;19.00;59.30;;;;;;5065985;28;20281;-60
2024/03/17 00:49:23;;;;;;;1.30;0.80;;;19.00;59.20;;;;;;5064694;28;20025;-61
2024/03/17 00:51:50;;;;;;;1.52;0.88;;;19.00;59.30;;;;;;5067900;28;20482;-61
2024/03/17 00:54:17;;;;;;;2.30;1.25;;;19.00;59.30;;;;;;5051546;28;20036;-59
2024/03/17 00:56:43;;;;;;;1.45;0.63;;;19.00;59.30;;;;;;5067415;28;20032;-60
2024/03/17 00:59:08;;;;;;;1.02;0.77;;;19.00;59.30;;;;;;5065864;28;20105;-60
2024/03/17 01:01:34;;;;;;;1.60;0.80;;;19.00;59.20;;;;;;5065322;28;20020;-60
2024/03/17 01:03:59;;;;;;;2.00;1.08;;;18.90;59.20;;;;;;5060585;28;20403;-59
2024/03/17 01:06:25;;;;;;;0.85;0.77;;;18.90;59.20;;;;;;5045810;28;20049;-58
2024/03/17 01:08:52;;;;;;;0.95;0.85;;;18.90;59.30;;;;;;5055628;28;20059;-60
2024/03/17 01:11:18;;;;;;;2.35;0.90;;;18.90;59.20;;;;;;5068579;28;20035;-60
2024/03/17 01:13:46;;;;;;;1.50;0.93;;;18.90;59.30;;;;;;5064872;28;20638;-61
2024/03/17 01:16:11;;;;;;;1.17;0.85;;;18.90;59.30;;;;;;5061662;28;20047;-60
2024/03/17 01:18:37;;;;;;;1.42;0.80;;;18.90;59.40;;;;;;5064188;28;20032;-61
2024/03/17 01:21:03;;;;;;;2.22;0.90;;;18.90;59.30;;;;;;5067949;28;20123;-60
2024/03/17 01:23:29;;;;;;;1.48;0.70;;;18.80;59.30;;;;;;5062832;28;20115;-61
2024/03/17 01:25:54;;;;;;;1.00;0.70;;;18.80;59.60;;;;;;5065429;28;20123;-61
2024/03/17 01:28:20;;;;;;;1.00;0.77;;;18.80;59.40;;;;;;5066801;28;20487;-61
2024/03/17 01:30:47;;;;;;;1.75;0.80;;;18.80;59.50;;;;;;5062453;28;20044;-60
2024/03/17 01:33:12;;;;;;;1.05;0.90;;;18.80;59.60;;;;;;5062364;28;20035;-61
2024/03/17 01:35:38;;;;;;;0.75;0.75;;;18.80;59.60;;;;;;5059492;28;20115;-59
2024/03/17 01:38:04;;;;;;;1.27;0.70;;;18.80;59.60;;;;;;5063192;28;20044;-58
2024/03/17 01:40:29;;;;;;;3.83;1.42;;;18.80;59.60;;;;;;5062953;28;20111;-60
2024/03/17 01:42:55;;;;;;;1.98;0.98;;;18.80;59.60;;;;;;5063962;28;20118;-60
2024/03/17 01:45:27;;;;;;;2.92;0.90;;;18.80;59.40;;;;;;5066741;28;20032;-60
2024/03/17 01:47:54;;;;;;;1.00;0.85;;;18.80;59.20;;;;;;5061383;28;20028;-60
2024/03/17 01:50:24;;;;;;;1.33;0.70;;;18.80;59.20;;;;;;5063319;28;20470;-59
2024/03/17 01:52:55;;;;;;;0.90;0.70;;;18.80;59.30;;;;;;5037625;28;20032;-60
2024/03/17 01:55:22;;;;;;;1.10;0.80;;;18.80;59.30;;;;;;5040808;28;20119;-60
2024/03/17 01:57:49;;;;;;;1.25;0.60;;;18.80;59.30;;;;;;5065463;28;20538;-60
2024/03/17 02:00:14;;;;;;;1.63;0.70;;;18.80;59.10;;;;;;5050032;28;20059;-61
2024/03/17 02:02:40;;;;;;;2.50;0.80;;;18.90;59.10;;;;;;5061150;28;20060;-61
2024/03/17 02:05:06;;;;;;;1.35;0.80;;;18.90;59.10;;;;;;5068844;28;20047;-62
2024/03/17 02:07:32;;;;;;;2.00;0.65;;;19.00;58.90;;;;;;5063541;28;20040;-59
2024/03/17 02:09:57;;;;;;;1.40;0.63;;;19.00;58.70;;;;;;5056657;28;20036;-59
2024/03/17 02:12:24;;;;;;;3.17;0.82;;;19.00;58.50;;;;;;5065039;28;20029;-61
2024/03/17 02:14:50;;;;;;;1.60;0.60;;;19.10;59.20;;;;;;5068309;28;20414;-61
2024/03/17 02:17:15;;;;;;;0.80;0.60;;;19.10;58.40;;;;;;5068274;28;20028;-59
2024/03/17 02:19:41;;;;;;;1.85;0.80;;;19.20;58.50;;;;;;5048393;28;20044;-61
2024/03/17 02:22:16;;;;;;;1.02;0.80;;;19.20;58.20;;;;;;5066666;28;20036;-62
2024/03/17 02:24:42;;;;;;;1.38;0.75;;;19.20;58.20;;;;;;5057911;22;20041;-55
2024/03/17 02:27:08;;;;;;;2.60;0.82;;;19.30;58.20;;;;;;5051619;28;20413;-53
2024/03/17 02:29:36;;;;;;;1.02;0.60;;;19.30;58.10;;;;;;5051926;28;20115;-55
2024/03/17 02:32:06;;;;;;;1.15;0.70;;;19.30;58.00;;;;;;5050034;28;20040;-60
2024/03/17 02:34:33;;;;;;;1.80;0.60;;;19.40;58.00;;;;;;5055406;28;20037;-57
2024/03/17 02:36:59;;;;;;;1.02;0.70;;;19.40;57.90;;;;;;5032824;28;20558;-53
2024/03/17 02:39:36;;;;;;;1.58;0.88;;;19.40;57.90;;;;;;5052402;28;20029;-59
2024/03/17 02:42:07;;;;;;;0.95;0.75;;;19.50;57.80;;;;;;5048885;28;20103;-58
2024/03/17 02:44:35;;;;;;;2.13;0.80;;;19.50;57.80;;;;;;5051258;28;20029;-62
2024/03/17 02:47:02;;;;;;;1.73;0.60;;;19.50;57.80;;;;;;5051015;28;20052;-55
2024/03/17 02:49:35;;;;;;;1.58;0.77;;;19.50;57.70;;;;;;5054419;28;20032;-57
2024/03/17 02:52:01;;;;;;;1.55;0.80;;;19.50;57.80;;;;;;5047300;28;20093;-58
2024/03/17 02:54:26;;;;;;;1.38;0.68;;;19.40;57.70;;;;;;5053664;28;20047;-61
2024/03/17 02:56:52;;;;;;;1.45;0.80;;;19.50;57.80;;;;;;5052047;28;20021;-54
2024/03/17 02:59:17;;;;;;;1.75;0.95;;;19.50;57.80;;;;;;5053923;28;20017;-52
2024/03/17 03:01:44;;;;;;;0.85;0.50;;;19.40;57.70;;;;;;5049202;28;20762;-55
2024/03/17 03:04:10;;;;;;;1.13;0.50;;;19.40;57.80;;;;;;5050152;28;20024;-60
2024/03/17 03:06:35;;;;;;;0.93;0.70;;;19.40;57.80;;;;;;5045092;28;20058;-57
2024/03/17 03:09:01;;;;;;;0.90;0.70;;;19.40;57.80;;;;;;5050993;28;20032;-53
2024/03/17 03:11:27;;;;;;;1.17;0.60;;;19.40;57.90;;;;;;5029362;28;20031;-57
2024/03/17 03:13:52;;;;;;;0.98;0.70;;;19.40;57.90;;;;;;5049151;28;20566;-60
2024/03/17 03:16:18;;;;;;;1.15;0.70;;;19.40;58.00;;;;;;5057205;28;20625;-55
2024/03/17 03:18:44;;;;;;;0.82;0.70;;;19.30;57.90;;;;;;5047966;28;20059;-56
2024/03/17 03:21:12;;;;;;;1.55;0.70;;;19.30;57.90;;;;;;5045097;28;20052;-54
2024/03/17 03:23:37;;;;;;;1.88;0.70;;;19.30;58.00;;;;;;5038893;28;20091;-56
2024/03/17 03:26:04;;;;;;;1.25;0.70;;;19.30;58.00;;;;;;5037814;28;20037;-59
2024/03/17 03:28:31;;;;;;;2.35;0.68;;;19.30;58.00;;;;;;5050939;28;20033;-63
2024/03/17 03:30:57;;;;;;;1.13;0.50;;;19.30;58.10;;;;;;5046211;28;20048;-57
2024/03/17 03:33:23;;;;;;;0.90;0.60;;;19.20;57.90;;;;;;5051968;28;20032;-58
2024/03/17 03:35:50;;;;;;;1.33;0.65;;;19.30;58.10;;;;;;5051748;28;20098;-59
2024/03/17 03:38:16;;;;;;;0.70;0.65;;;19.20;57.90;;;;;;5052033;28;20098;-57
2024/03/17 03:40:42;;;;;;;2.15;0.80;;;19.20;58.00;;;;;;5048262;28;20052;-59
2024/03/17 03:43:11;;;;;;;0.75;0.65;;;19.20;58.80;;;;;;5053300;28;20041;-59
2024/03/17 03:45:37;;;;;;;1.63;0.80;;;19.20;58.00;;;;;;5051451;28;20083;-57
2024/03/17 03:48:03;;;;;;;1.67;0.73;;;19.20;58.00;;;;;;5051439;28;20033;-57
2024/03/17 03:50:29;;;;;;;1.05;0.60;;;19.20;58.10;;;;;;5047278;28;20487;-57
2024/03/17 03:52:55;;;;;;;1.02;0.55;;;19.20;58.20;;;;;;5052065;28;20041;-57
2024/03/17 03:55:21;;;;;;;1.45;0.60;;;19.20;58.10;;;;;;5040081;28;20041;-56
2024/03/17 03:57:47;;;;;;;1.75;0.80;;;19.20;58.20;;;;;;5047086;28;20377;-58
2024/03/17 04:00:21;;;;;;;0.80;0.70;;;19.20;58.80;;;;;;5045536;28;20118;-58
2024/03/17 04:02:48;;;;;;;0.73;0.50;;;19.20;58.00;;;;;;5051323;28;20033;-58
2024/03/17 04:05:13;;;;;;;0.60;0.55;;;19.10;58.70;;;;;;5048602;28;20041;-57
2024/03/17 04:07:39;;;;;;;1.50;0.60;;;19.10;58.10;;;;;;5048450;28;20512;-58
2024/03/17 04:10:06;;;;;;;1.58;0.65;;;19.10;58.10;;;;;;5038624;28;20107;-58
2024/03/17 04:12:31;;;;;;;0.98;0.60;;;19.10;58.20;;;;;;5036918;28;20052;-56
2024/03/17 04:14:57;;;;;;;1.83;0.80;;;19.10;58.10;;;;;;5050038;28;20456;-56
2024/03/17 04:17:23;;;;;;;1.90;0.80;;;19.10;58.20;;;;;;5046443;28;20543;-57
2024/03/17 04:19:50;;;;;;;1.77;0.60;;;19.10;58.20;;;;;;5045141;28;20045;-57
2024/03/17 04:22:16;;;;;;;1.27;0.82;;;19.10;58.10;;;;;;5052333;28;20024;-58
2024/03/17 04:24:46;;;;;;;1.40;0.90;;;19.10;58.20;;;;;;5032132;28;20033;-56
2024/03/17 04:27:13;;;;;;;1.85;0.60;;;19.00;58.10;;;;;;5043901;28;20056;-56
2024/03/17 04:29:39;;;;;;;2.13;0.80;;;19.00;58.10;;;;;;5050485;28;20092;-56
2024/03/17 04:32:05;;;;;;;0.75;0.55;;;19.10;58.20;;;;;;5037074;28;20633;-55
2024/03/17 04:34:31;;;;;;;2.58;0.70;;;19.00;58.10;;;;;;5046612;28;20561;-58
2024/03/17 04:36:57;;;;;;;1.30;0.70;;;19.00;58.10;;;;;;5049327;28;20035;-57
2024/03/17 04:39:23;;;;;;;1.70;0.73;;;19.00;58.10;;;;;;5052082;28;20053;-55
2024/03/17 04:41:49;;;;;;;1.23;1.00;;;19.00;58.00;;;;;;5048290;28;20021;-54
2024/03/17 04:44:15;;;;;;;0.95;0.55;;;19.00;58.10;;;;;;5043109;28;20017;-57
2024/03/17 04:46:41;;;;;;;1.42;0.70;;;19.00;58.10;;;;;;5042357;28;20540;-58
2024/03/17 04:49:06;;;;;;;2.72;1.15;;;19.00;58.10;;;;;;5053690;28;20104;-56
2024/03/17 04:51:33;;;;;;;1.55;0.70;;;19.00;58.10;;;;;;5049911;28;20028;-56
2024/03/17 04:53:59;;;;;;;1.85;0.82;;;19.00;58.10;;;;;;5032563;28;20029;-53
2024/03/17 04:56:24;;;;;;;1.45;0.63;;;19.00;58.10;;;;;;5052894;28;20029;-61
2024/03/17 04:58:50;;;;;;;0.70;0.63;;;19.00;58.10;;;;;;5051430;28;20405;-54
2024/03/17 05:01:15;;;;;;;1.17;0.60;;;19.00;58.10;;;;;;5044916;28;20044;-56
2024/03/17 05:03:41;;;;;;;0.95;0.50;;;19.00;58.10;;;;;;5053978;28;20036;-54
2024/03/17 05:06:06;;;;;;;1.02;0.68;;;19.00;58.10;;;;;;5045084;28;20120;-52
2024/03/17 05:08:34;;;;;;;1.42;0.95;;;19.00;58.00;;;;;;5045478;28;20037;-55
2024/03/17 05:11:04;;;;;;;1.27;0.70;;;19.00;58.10;;;;;;5045442;28;20174;-58
2024/03/17 05:13:31;;;;;;;1.42;0.50;;;19.00;58.10;;;;;;5024556;28;20029;-54
2024/03/17 05:15:57;;;;;;;2.58;0.65;;;19.00;58.30;;;;;;5052267;28;20512;-54
2024/03/17 05:18:25;;;;;;;1.23;0.60;;;19.00;58.10;;;;;;5058612;28;20131;-58
2024/03/17 05:21:01;;;;;;;0.82;0.63;;;19.00;58.10;;;;;;5042861;28;20087;-56
2024/03/17 05:23:27;;;;;;;;;;;19.00;58.20;;;;;;5057301;28;20040;-57
2024/03/17 05:25:53;;;;;;;2.00;0.75;;;19.00;58.10;;;;;;5045580;28;20000;-57
2024/03/17 05:28:19;;;;;;;1.10;0.60;;;18.90;58.10;;;;;;5049779;28;20560;-56
2024/03/17 05:30:45;;;;;;;0.73;0.50;;;19.00;58.20;;;;;;5046468;28;20094;-54
2024/03/17 05:33:10;;;;;;;1.15;0.93;;;19.00;58.10;;;;;;5051563;28;20033;-57
2024/03/17 05:35:36;;;;;;;2.45;0.80;;;18.90;58.10;;;;;;5047293;28;20021;-53
2024/03/17 05:38:02;;;;;;;0.75;0.55;;;18.90;58.10;;;;;;5052892;28;20037;-54
2024/03/17 05:40:27;;;;;;;1.77;0.80;;;18.90;58.10;;;;;;5045179;28;20033;-55
2024/03/17 05:42:53;;;;;;;1.50;0.73;;;18.90;58.10;;;;;;5051719;28;20037;-57
2024/03/17 05:45:18;;;;;;;1.70;0.60;;;18.90;58.10;;;;;;5040697;28;20029;-57
2024/03/17 05:47:44;;;;;;;5.07;0.90;;;18.90;58.00;;;;;;5053736;28;20663;-57
2024/03/17 05:50:09;;;;;;;1.50;0.80;;;18.90;58.10;;;;;;5042956;28;20114;-55
2024/03/17 05:52:35;;;;;;;1.15;0.70;;;18.90;58.10;;;;;;5053112;28;20033;-56
2024/03/17 05:55:00;;;;;;;1.10;0.55;;;18.90;58.10;;;;;;5044984;28;20036;-55
2024/03/17 05:57:26;;;;;;;0.57;0.50;;;18.90;58.10;;;;;;5055175;28;20038;-57
2024/03/17 05:59:51;;;;;;;1.73;0.60;;;18.90;57.90;;;;;;5046465;28;20045;-56
2024/03/17 06:02:18;;;;;;;2.08;0.85;;;18.90;58.10;;;;;;5052611;28;20040;-56
2024/03/17 06:04:44;;;;;;;1.65;0.80;;;18.90;58.10;;;;;;5044030;28;20075;-55
2024/03/17 06:07:09;;;;;;;1.27;0.55;;;18.90;58.00;;;;;;5049740;28;20182;-56
2024/03/17 06:09:35;;;;;;;1.55;0.63;;;18.90;58.00;;;;;;5043805;28;20045;-57
2024/03/17 06:12:01;;;;;;;2.00;0.60;;;18.90;58.10;;;;;;5051113;28;20428;-59
2024/03/17 06:14:26;;;;;;;0.75;0.60;;;18.90;58.00;;;;;;5050312;28;20041;-57
2024/03/17 06:16:52;;;;;;;1.85;0.77;;;18.90;58.00;;;;;;5056741;28;20127;-56
2024/03/17 06:19:17;;;;;;;0.95;0.70;;;18.90;58.00;;;;;;5048735;28;20040;-57
2024/03/17 06:21:43;;;;;;;2.40;0.80;;;18.90;58.00;;;;;;5060132;28;20021;-59
2024/03/17 06:24:08;;;;;;;1.83;0.90;;;18.90;58.00;;;;;;5047682;28;20036;-60
2024/03/17 06:26:35;;;;;;;1.42;0.70;;;18.90;58.00;;;;;;5037316;28;20036;-56
2024/03/17 06:29:01;;;;;;;0.88;0.70;;;18.90;58.00;;;;;;5050187;28;20059;-56
2024/03/17 06:31:26;;;;;;;1.10;0.60;;;18.90;58.10;;;;;;5052261;28;20460;-57
2024/03/17 06:33:52;;;;;;;1.90;0.70;;;18.90;58.00;;;;;;5044320;28;20417;-58
2024/03/17 06:36:17;;;;;;;2.05;0.70;;;18.90;57.90;;;;;;5052645;28;20036;-56
2024/03/17 06:38:43;;;;;;;0.55;0.38;;;18.90;57.90;;;;;;5044578;28;20573;-57
2024/03/17 06:41:10;;;;;;;0.80;0.50;;;18.90;57.90;;;;;;5039583;28;20095;-57
2024/03/17 06:43:35;;;;;;;1.70;0.60;;;18.90;57.90;;;;;;5052698;28;20039;-57
2024/03/17 06:46:01;;;;;;;1.40;0.75;;;18.90;57.90;;;;;;5035127;28;20036;-56
2024/03/17 06:48:28;;;;;;;2.00;0.70;;;18.90;58.00;;;;;;5046861;28;20035;-56
2024/03/17 06:50:54;;;;;;;1.05;0.60;;;18.90;57.90;;;;;;5054045;28;20052;-58
2024/03/17 06:53:26;;;;;;;1.05;0.70;;;18.90;58.00;;;;;;5040593;28;20584;-56
2024/03/17 06:55:56;;;;;;;1.08;0.68;;;18.90;58.00;;;;;;5050614;28;20029;-56
2024/03/17 06:58:22;;;;;;;1.02;0.70;;;18.90;58.00;;;;;;5048886;28;20875;-58
2024/03/17 07:00:55;;;;;;;2.47;0.80;;;18.90;58.00;;;;;;5052466;28;20178;-55
2024/03/17 07:03:23;;;;;;;1.55;0.75;;;18.90;58.10;;;;;;5053515;28;20920;-58
2024/03/17 07:05:57;;;;;;;1.48;0.50;;;18.90;58.00;;;;;;5054074;28;20043;-55
2024/03/17 07:08:23;;;;;;;1.10;0.65;;;18.90;58.00;;;;;;5046472;28;20029;-56
2024/03/17 07:11:06;;;;;;;1.17;0.57;;;18.90;58.00;;;;;;5050818;28;20527;-55
2024/03/17 07:13:36;;;;;;;1.80;0.60;;;18.90;58.00;;;;;;5026970;28;20397;-58
2024/03/17 07:16:05;;;;;;;2.10;0.50;;;18.80;58.00;;;;;;5025655;28;20055;-56
2024/03/17 07:18:31;;;;;;;2.03;0.73;;;18.90;57.90;;;;;;5056640;28;20120;-57
2024/03/17 07:21:02;;;;;;;1.15;0.60;;;18.80;58.00;;;;;;5053691;28;20120;-57
2024/03/17 07:23:28;;;;;;;0.70;0.60;;;18.80;57.90;;;;;;5053345;28;20032;-58
2024/03/17 07:25:58;;;;;;;0.82;0.50;;;18.90;58.00;;;;;;5051291;28;20038;-58
2024/03/17 07:28:24;;;;;;;1.27;0.70;;;18.90;57.90;;;;;;5050237;28;23024;-57
2024/03/17 07:30:51;;;;;;;1.27;0.70;;;18.90;57.90;;;;;;5052069;28;20028;-54
2024/03/17 07:33:17;;;;;;;2.17;0.90;;;18.80;58.10;;;;;;5052460;28;20055;-55
2024/03/17 07:36:00;;;;;;;1.27;0.68;;;18.90;58.00;;;;;;5052809;28;20498;-56
2024/03/17 07:38:26;;;;;;;1.50;1.00;;;18.90;58.00;;;;;;5050165;28;20048;-56
2024/03/17 07:41:00;;;;;;;2.63;0.70;;;18.90;58.00;;;;;;5052279;28;20039;-54
2024/03/17 07:43:26;;;;;;;2.00;0.60;;;18.90;57.90;;;;;;5035502;28;20521;-57
2024/03/17 07:46:09;;;;;;;0.98;0.80;;;18.90;58.00;;;;;;5052454;28;20430;-54
2024/03/17 07:48:36;;;;;;;1.25;0.73;;;18.90;58.00;;;;;;5051610;28;20127;-53
2024/03/17 07:51:05;;;;;;;1.50;0.80;;;18.90;58.10;;;;;;5049762;28;20037;-52
2024/03/17 07:53:34;;;;;;;1.52;0.70;;;18.90;58.00;;;;;;5034826;28;20045;-52
2024/03/17 07:56:04;;;;;;;1.35;0.80;;;18.90;58.00;;;;;;5041235;28;20090;-54
2024/03/17 07:58:33;;;;;;;1.23;0.60;;;18.90;58.00;;;;;;5051099;28;20040;-55
2024/03/17 08:01:00;;;;;;;1.55;0.60;;;18.90;57.90;;;;;;5048534;28;20025;-52
2024/03/17 08:03:33;;;;;;;0.82;0.60;;;18.90;58.00;;;;;;5050991;28;20066;-56
2024/03/17 08:06:00;;;;;;;1.50;0.80;;;18.90;57.90;;;;;;5049820;28;20116;-52
2024/03/17 08:08:27;;;;;;;1.42;0.80;;;18.90;57.90;;;;;;5050806;28;20032;-55
2024/03/17 08:10:53;;;;;;;1.80;0.70;;;18.90;57.90;;;;;;5050513;28;20486;-53
2024/03/17 08:13:19;;;;;;;1.88;0.95;;;18.90;57.90;;;;;;5048512;28;20064;-54
2024/03/17 08:15:45;;;;;;;0.90;0.60;;;18.90;58.00;;;;;;5053701;28;20481;-57
2024/03/17 08:18:12;;;;;;;2.13;0.70;;;18.90;58.10;;;;;;5049079;28;20037;-56
2024/03/17 08:20:43;;;;;;;0.85;0.60;;;18.90;57.90;;;;;;5050228;28;20103;-55
2024/03/17 08:23:09;;;;;;;2.00;0.73;;;18.90;58.00;;;;;;5024319;28;20385;-56
2024/03/17 08:25:34;;;;;;;1.35;0.55;;;18.90;57.90;;;;;;5057401;28;20122;-58
2024/03/17 08:28:01;;;;;;;1.45;0.60;;;18.90;57.90;;;;;;5051556;28;20123;-54
2024/03/17 08:30:27;;;;;;;1.35;0.70;;;18.90;58.00;;;;;;5052558;28;20040;-53
2024/03/17 08:32:52;;;;;;;2.22;0.55;;;18.90;58.10;;;;;;5052173;28;20066;-54
2024/03/17 08:35:18;;;;;;;1.80;0.77;;;18.90;58.00;;;;;;5055197;28;20037;-54
2024/03/17 08:37:44;;;;;;;1.13;0.90;;;18.90;58.00;;;;;;5055462;28;20040;-55
2024/03/17 08:40:10;;;;;;;2.15;0.73;;;18.90;58.00;;;;;;5046569;28;20049;-58
2024/03/17 08:42:36;;;;;;;2.25;1.05;;;18.90;58.00;;;;;;5048757;28;20033;-57
2024/03/17 08:45:02;;;;;;;1.23;0.43;;;18.90;57.90;;;;;;5051716;28;20421;-52
2024/03/17 08:47:28;;;;;;;1.33;0.65;;;18.90;58.00;;;;;;5051739;28;20066;-53
2024/03/17 08:49:54;;;;;;;1.60;0.80;;;18.90;57.90;;;;;;5054133;28;20461;-54
2024/03/17 08:52:20;;;;;;;2.13;0.80;;;18.90;57.90;;;;;;5052042;28;20028;-53
2024/03/17 08:54:46;;;;;;;0.77;0.68;;;18.90;57.90;;;;;;5048500;28;20156;-55
2024/03/17 08:57:12;;;;;;;0.73;0.55;;;18.90;58.00;;;;;;5051841;28;20058;-57
2024/03/17 08:59:38;;;;;;;1.55;0.70;;;18.90;57.90;;;;;;5043258;28;20028;-54
2024/03/17 09:02:03;;;;;;;1.67;0.75;;;18.90;58.10;;;;;;5040350;28;20021;-56
2024/03/17 09:04:30;;;;;;;1.00;0.88;;;18.90;58.00;;;;;;5055833;28;20311;-56
2024/03/17 09:06:56;;;;;;;1.65;0.70;;;18.90;57.90;;;;;;5049522;28;20031;-53
2024/03/17 09:09:22;;;;;;;2.30;1.10;;;18.90;57.90;;;;;;5048935;28;20041;-53
2024/03/17 09:11:48;;;;;;;1.10;0.70;;;18.90;58.00;;;;;;5053720;28;20094;-53
2024/03/17 09:14:13;;;;;;;1.67;0.77;;;18.90;58.40;;;;;;5031941;28;20029;-56
2024/03/17 09:16:39;;;;;;;2.60;0.90;;;18.90;58.10;;;;;;5049223;28;20028;-52
2024/03/17 09:19:04;;;;;;;1.00;0.55;;;18.90;58.00;;;;;;5051086;28;20694;-52
2024/03/17 09:21:30;;;;;;;1.65;0.95;;;18.90;57.90;;;;;;5052906;28;20033;-57
2024/03/17 09:23:55;;;;;;;2.03;0.90;;;18.90;58.00;;;;;;5049771;28;20045;-55
2024/03/17 09:26:20;;;;;;;1.55;0.90;;;18.90;58.10;;;;;;5051010;28;20086;-54
2024/03/17 09:28:46;;;;;;;1.35;0.65;;;18.90;57.90;;;;;;5049373;28;20051;-54
2024/03/17 09:31:12;;;;;;;1.55;0.90;;;18.90;58.00;;;;;;5050860;28;20448;-57
2024/03/17 09:33:40;;;;;;;2.38;0.95;;;18.90;58.00;;;;;;5048341;28;20070;-56
2024/03/17 09:36:08;;;;;;;1.73;0.82;;;18.90;57.90;;;;;;5049207;28;20637;-58
2024/03/17 09:38:35;;;;;;;1.15;0.70;;;18.90;57.90;;;;;;5050202;28;20101;-59
2024/03/17 09:41:01;;;;;;;0.95;0.63;;;18.90;57.90;;;;;;5051665;28;20039;-57
2024/03/17 09:43:28;;;;;;;1.33;0.60;;;18.90;58.00;;;;;;5049856;28;20036;-53
2024/03/17 09:45:57;;;;;;;1.23;0.73;;;18.90;57.90;;;;;;5050491;28;20032;-60
2024/03/17 09:48:23;;;;;;;2.80;0.70;;;18.90;57.90;;;;;;5051207;28;20036;-54
2024/03/17 09:51:02;;;;;;;0.80;0.60;;;19.00;58.00;;;;;;5053731;28;20031;-56
2024/03/17 09:53:32;;;;;;;0.85;0.57;;;18.90;57.90;;;;;;5047528;28;20501;-58
2024/03/17 09:56:09;;;;;;;2.17;0.98;;;19.00;57.90;;;;;;5052700;28;20060;-58
2024/03/17 09:58:35;;;;;;;1.98;0.80;;;19.00;58.00;;;;;;5046471;28;20066;-51
2024/03/17 10:01:01;;;;;;;0.80;0.60;;;19.00;58.10;;;;;;5052134;28;20049;-56
2024/03/17 10:03:45;;;;;;;0.85;0.60;;;19.00;58.10;;;;;;5046137;28;20037;-53
2024/03/17 10:06:14;;;;;;;2.25;0.82;;;18.90;58.00;;;;;;5039229;28;20068;-56
2024/03/17 10:08:44;;;;;;;2.53;0.77;;;18.90;58.60;;;;;;5042103;28;20513;-59
2024/03/17 10:11:11;;;;;;;1.65;0.73;;;18.90;57.90;;;;;;5052440;28;20120;-55
2024/03/17 10:13:36;;;;;;;2.47;0.88;;;19.00;58.00;;;;;;5043468;28;20048;-58
2024/03/17 10:16:02;;;;;;;2.97;0.98;;;18.90;58.00;;;;;;5056082;28;20049;-58
2024/03/17 10:18:27;;;;;;;2.25;1.00;;;18.90;58.00;;;;;;5046093;28;20043;-56
2024/03/17 10:20:56;;;;;;;1.65;1.02;;;18.90;58.10;;;;;;5053238;28;20033;-61
2024/03/17 10:23:22;;;;;;;2.05;0.68;;;18.90;58.10;;;;;;5046142;28;20045;-55
2024/03/17 10:25:48;;;;;;;2.15;1.10;;;18.80;58.20;;;;;;5051776;28;20025;-52
2024/03/17 10:28:15;;;;;;;1.33;0.60;;;18.80;58.30;;;;;;5052718;28;20025;-58
2024/03/17 10:30:42;;;;;;;1.35;0.52;;;18.80;58.40;;;;;;5056251;28;20081;-56
2024/03/17 10:33:22;;;;;;;1.20;0.70;;;18.80;58.40;;;;;;5052514;28;20024;-60
2024/03/17 10:35:48;;;;;;;0.93;0.50;;;18.80;58.50;;;;;;5052290;28;20078;-54
2024/03/17 10:38:14;;;;;;;2.17;0.98;;;18.80;58.50;;;;;;5079720;22;20039;-56
2024/03/17 10:40:41;;;;;;;1.45;0.80;;;18.80;58.50;;;;;;5089107;28;20028;-56
2024/03/17 10:43:07;;;;;;;1.88;1.10;;;18.80;58.40;;;;;;5083827;28;20032;-57
2024/03/17 10:45:38;;;;;;;1.38;0.70;;;18.80;58.40;;;;;;5088107;28;20493;-56
2024/03/17 10:48:09;;;;;;;1.70;0.68;;;18.80;58.40;;;;;;5089913;28;20551;-58
2024/03/17 10:50:39;;;;;;;1.77;0.60;;;18.80;58.30;;;;;;5085971;28;20028;-57
2024/03/17 10:53:10;;;;;;;1.25;0.63;;;18.80;58.20;;;;;;5091928;28;20392;-56
2024/03/17 10:55:45;;;;;;;2.33;0.70;;;18.90;58.20;;;;;;5092992;28;20135;-57
2024/03/17 10:58:46;;;;;;;1.45;0.77;;;18.90;58.10;;;;;;5073856;28;20092;-55
2024/03/17 11:01:13;;;;;;;2.75;1.20;;;19.00;58.00;;;;;;5087996;28;20036;-60
2024/03/17 11:03:39;;;;;;;1.48;0.50;;;19.00;57.80;;;;;;5089296;28;20036;-55
2024/03/17 11:06:08;;;;;;;1.80;0.70;;;19.00;57.90;;;;;;5085911;28;20036;-55
2024/03/17 11:08:34;;;;;;;0.98;0.63;;;19.10;57.80;;;;;;5085979;28;20138;-57
2024/03/17 11:11:00;;;;;;;0.93;0.45;;;19.10;57.70;;;;;;5085619;28;20114;-57
2024/03/17 11:13:27;;;;;;;1.05;0.50;;;19.20;57.60;;;;;;5090510;28;20039;-60
2024/03/17 11:15:55;;;;;;;1.00;0.70;;;19.20;57.50;;;;;;5087209;28;20749;-52
2024/03/17 11:18:21;;;;;;;1.65;0.80;;;19.30;57.50;;;;;;5088190;28;20131;-60
2024/03/17 11:21:20;;;;;;;1.30;0.52;;;19.30;57.40;;;;;;5087091;28;20155;-59
2024/03/17 11:23:57;;;;;;;1.23;0.70;;;19.40;57.40;;;;;;5059806;28;20070;-55
2024/03/17 11:26:27;;;;;;;1.15;0.70;;;19.40;57.20;;;;;;5087902;28;20092;-58
2024/03/17 11:28:55;;;;;;;2.08;0.70;;;19.40;57.20;;;;;;5085245;28;20051;-53
2024/03/17 11:31:44;;;;;;;0.75;0.60;;;19.40;57.20;;;;;;5088373;28;20031;-56
2024/03/17 11:34:27;;;;;;;2.00;0.73;;;19.50;57.10;;;;;;5087329;28;20489;-50
2024/03/17 11:36:53;;;;;;;0.77;0.57;;;19.50;57.00;;;;;;5089748;28;20232;-54
2024/03/17 11:39:26;;;;;;;1.45;0.50;;;19.50;57.00;;;;;;5092035;28;20051;-58
2024/03/17 11:41:52;;;;;;;1.33;0.60;;;19.50;56.90;;;;;;5090424;28;20031;-56
2024/03/17 11:44:21;;;;;;;1.48;0.50;;;19.50;56.90;;;;;;5085593;28;20100;-54
2024/03/17 11:46:58;;;;;;;2.17;0.70;;;19.60;56.90;;;;;;5092911;28;20074;-55
2024/03/17 11:49:31;;;;;;;1.13;0.60;;;19.60;57.00;;;;;;5084157;28;20066;-57
2024/03/17 11:52:03;;;;;;;1.00;0.60;;;19.60;57.00;;;;;;5090507;28;20594;-56
2024/03/17 11:54:32;;;;;;;0.85;0.60;;;19.60;57.00;;;;;;5085282;28;20160;-52
2024/03/17 11:57:03;;;;;;;1.13;0.55;;;19.60;56.90;;;;;;5091866;28;20051;-55
2024/03/17 11:59:29;;;;;;;0.93;0.40;;;19.60;57.60;;;;;;5091150;28;20384;-57
2024/03/17 12:01:55;;;;;;;1.50;0.52;;;19.50;56.90;;;;;;5090264;28;20036;-58
2024/03/17 12:04:23;;;;;;;1.02;0.60;;;19.60;57.00;;;;;;5089043;28;20618;-55
2024/03/17 12:06:53;;;;;;;1.55;0.60;;;19.60;57.00;;;;;;5065105;28;20983;-52
2024/03/17 12:09:31;;;;;;;0.77;0.40;;;19.50;57.00;;;;;;5085779;28;20051;-53
2024/03/17 12:12:10;;;;;;;1.13;0.60;;;19.60;57.10;;;;;;5090885;28;20496;-55
2024/03/17 12:14:37;;;;;;;1.58;0.77;;;19.50;57.00;;;;;;5083617;28;20063;-56
2024/03/17 12:17:04;;;;;;;2.33;0.95;;;19.60;57.80;;;;;;5091550;28;20093;-55
2024/03/17 12:19:30;;;;;;;2.10;0.93;;;19.50;57.10;;;;;;5089614;28;20040;-56
2024/03/17 12:21:57;;;;;;;1.02;0.40;;;19.50;57.20;;;;;;5090637;28;20536;-64
2024/03/17 12:24:24;;;;;;;0.70;0.47;;;19.50;57.20;;;;;;5077801;28;20678;-56
2024/03/17 12:26:55;;;;;;;2.20;0.77;;;19.50;57.30;;;;;;5085378;28;20066;-56
2024/03/17 12:29:23;;;;;;;0.68;0.50;;;19.50;57.30;;;;;;5087042;28;20035;-57
2024/03/17 12:31:51;;;;;;;1.90;0.70;;;19.50;57.40;;;;;;5083499;28;20036;-57
2024/03/17 12:34:17;;;;;;;0.85;0.57;;;19.50;57.30;;;;;;5079679;28;20074;-56
2024/03/17 12:36:43;;;;;;;1.45;0.50;;;19.50;57.40;;;;;;5085572;28;20388;-55
2024/03/17 12:39:20;;;;;;;1.30;0.50;;;19.40;57.30;;;;;;5086474;28;20064;-56
2024/03/17 12:42:01;;;;;;;1.38;0.75;;;19.40;57.40;;;;;;5074663;28;20043;-57
2024/03/17 12:44:26;;;;;;;0.70;0.50;;;19.40;57.40;;;;;;5086731;28;20035;-59
2024/03/17 12:47:02;;;;;;;1.30;0.60;;;19.40;57.40;;;;;;5083021;28;20058;-56
2024/03/17 12:49:36;;;;;;;1.05;0.50;;;19.40;57.40;;;;;;5091385;28;20042;-53